sensor_id;sensor_type;location;lat;lon;timestamp;P1;durP1;ratioP1;P2;durP2;ratioP2
23728;SDS011;12045;60.214;24.724;2023-04-24T00:00:00;6.32;;;3.75;;
23728;SDS011;12045;60.214;24.724;2023-04-24T00:02:28;7.93;;;3.60;;
23728;SDS011;12045;60.214;24.724;2023-04-24T00:04:57;7.40;;;3.50;;
23728;SDS011;12045;60.214;24.724;2023-04-24T00:07:29;6.85;;;3.95;;
23728;SDS011;12045;60.214;24.724;2023-04-24T00:09:59;6.68;;;4.10;;
23728;SDS011;12045;60.214;24.724;2023-04-24T00:12:27;6.55;;;3.90;;
23728;SDS011;12045;60.214;24.724;2023-04-24T00:14:55;6.65;;;3.97;;
23728;SDS011;12045;60.214;24.724;2023-04-24T00:17:22;7.10;;;3.90;;
23728;SDS011;12045;60.214;24.724;2023-04-24T00:19:50;11.25;;;4.18;;
23728;SDS011;12045;60.214;24.724;2023-04-24T00:22:18;7.32;;;3.63;;
23728;SDS011;12045;60.214;24.724;2023-04-24T00:24:47;5.75;;;3.90;;
23728;SDS011;12045;60.214;24.724;2023-04-24T00:27:15;7.32;;;4.20;;
23728;SDS011;12045;60.214;24.724;2023-04-24T00:29:42;7.10;;;4.13;;
23728;SDS011;12045;60.214;24.724;2023-04-24T00:32:10;8.85;;;3.95;;
23728;SDS011;12045;60.214;24.724;2023-04-24T00:34:38;7.88;;;4.00;;
23728;SDS011;12045;60.214;24.724;2023-04-24T00:37:05;9.55;;;3.90;;
23728;SDS011;12045;60.214;24.724;2023-04-24T00:39:33;6.88;;;3.70;;
23728;SDS011;12045;60.214;24.724;2023-04-24T00:42:00;5.90;;;3.78;;
23728;SDS011;12045;60.214;24.724;2023-04-24T00:44:28;10.18;;;4.00;;
23728;SDS011;12045;60.214;24.724;2023-04-24T00:46:56;8.95;;;3.58;;
23728;SDS011;12045;60.214;24.724;2023-04-24T00:49:24;5.43;;;3.88;;
23728;SDS011;12045;60.214;24.724;2023-04-24T00:51:52;6.93;;;4.05;;
23728;SDS011;12045;60.214;24.724;2023-04-24T00:54:20;5.70;;;3.67;;
23728;SDS011;12045;60.214;24.724;2023-04-24T00:56:48;8.10;;;3.80;;
23728;SDS011;12045;60.214;24.724;2023-04-24T00:59:15;7.43;;;3.97;;
23728;SDS011;12045;60.214;24.724;2023-04-24T01:01:44;6.63;;;3.90;;
23728;SDS011;12045;60.214;24.724;2023-04-24T01:04:12;6.07;;;3.38;;
23728;SDS011;12045;60.214;24.724;2023-04-24T01:06:41;6.35;;;3.85;;
23728;SDS011;12045;60.214;24.724;2023-04-24T01:09:11;7.10;;;3.97;;
23728;SDS011;12045;60.214;24.724;2023-04-24T01:11:39;8.90;;;3.25;;
23728;SDS011;12045;60.214;24.724;2023-04-24T01:14:08;6.57;;;3.80;;
23728;SDS011;12045;60.214;24.724;2023-04-24T01:16:36;5.43;;;3.65;;
23728;SDS011;12045;60.214;24.724;2023-04-24T01:19:08;6.70;;;3.70;;
23728;SDS011;12045;60.214;24.724;2023-04-24T01:21:37;6.88;;;4.20;;
23728;SDS011;12045;60.214;24.724;2023-04-24T01:24:06;9.50;;;3.78;;
23728;SDS011;12045;60.214;24.724;2023-04-24T01:26:34;6.95;;;3.65;;
23728;SDS011;12045;60.214;24.724;2023-04-24T01:29:02;12.57;;;4.03;;
23728;SDS011;12045;60.214;24.724;2023-04-24T01:31:29;6.88;;;4.47;;
23728;SDS011;12045;60.214;24.724;2023-04-24T01:33:58;6.05;;;4.10;;
23728;SDS011;12045;60.214;24.724;2023-04-24T01:36:26;8.68;;;4.13;;
23728;SDS011;12045;60.214;24.724;2023-04-24T01:38:55;7.63;;;4.15;;
23728;SDS011;12045;60.214;24.724;2023-04-24T01:41:23;7.22;;;4.10;;
23728;SDS011;12045;60.214;24.724;2023-04-24T01:43:51;8.65;;;4.40;;
23728;SDS011;12045;60.214;24.724;2023-04-24T01:46:19;5.47;;;4.00;;
23728;SDS011;12045;60.214;24.724;2023-04-24T01:48:46;6.68;;;3.90;;
23728;SDS011;12045;60.214;24.724;2023-04-24T01:51:14;5.43;;;4.05;;
23728;SDS011;12045;60.214;24.724;2023-04-24T01:53:41;6.88;;;4.13;;
23728;SDS011;12045;60.214;24.724;2023-04-24T01:56:09;5.90;;;4.03;;
23728;SDS011;12045;60.214;24.724;2023-04-24T01:58:39;8.38;;;4.15;;
23728;SDS011;12045;60.214;24.724;2023-04-24T02:01:06;7.45;;;4.38;;
23728;SDS011;12045;60.214;24.724;2023-04-24T02:03:33;7.88;;;4.05;;
23728;SDS011;12045;60.214;24.724;2023-04-24T02:06:01;7.97;;;4.50;;
23728;SDS011;12045;60.214;24.724;2023-04-24T02:08:31;6.15;;;4.00;;
23728;SDS011;12045;60.214;24.724;2023-04-24T02:11:01;9.20;;;4.32;;
23728;SDS011;12045;60.214;24.724;2023-04-24T02:13:29;7.25;;;3.95;;
23728;SDS011;12045;60.214;24.724;2023-04-24T02:15:57;8.98;;;4.30;;
23728;SDS011;12045;60.214;24.724;2023-04-24T02:18:25;8.35;;;4.72;;
23728;SDS011;12045;60.214;24.724;2023-04-24T02:20:53;6.80;;;4.45;;
23728;SDS011;12045;60.214;24.724;2023-04-24T02:23:20;6.38;;;3.83;;
23728;SDS011;12045;60.214;24.724;2023-04-24T02:25:48;10.18;;;4.13;;
23728;SDS011;12045;60.214;24.724;2023-04-24T02:28:17;5.72;;;4.18;;
23728;SDS011;12045;60.214;24.724;2023-04-24T02:30:46;8.20;;;4.15;;
23728;SDS011;12045;60.214;24.724;2023-04-24T02:33:15;6.70;;;4.07;;
23728;SDS011;12045;60.214;24.724;2023-04-24T02:35:43;9.45;;;4.50;;
23728;SDS011;12045;60.214;24.724;2023-04-24T02:38:12;7.30;;;4.07;;
23728;SDS011;12045;60.214;24.724;2023-04-24T02:40:41;9.40;;;4.43;;
23728;SDS011;12045;60.214;24.724;2023-04-24T02:43:14;10.27;;;4.30;;
23728;SDS011;12045;60.214;24.724;2023-04-24T02:45:42;11.45;;;4.05;;
23728;SDS011;12045;60.214;24.724;2023-04-24T02:48:13;8.25;;;4.30;;
23728;SDS011;12045;60.214;24.724;2023-04-24T02:50:43;7.78;;;3.97;;
23728;SDS011;12045;60.214;24.724;2023-04-24T02:53:14;9.35;;;4.45;;
23728;SDS011;12045;60.214;24.724;2023-04-24T02:55:43;4.70;;;3.47;;
23728;SDS011;12045;60.214;24.724;2023-04-24T02:58:13;7.57;;;4.03;;
23728;SDS011;12045;60.214;24.724;2023-04-24T03:00:46;6.40;;;4.30;;
23728;SDS011;12045;60.214;24.724;2023-04-24T03:03:17;12.70;;;5.00;;
23728;SDS011;12045;60.214;24.724;2023-04-24T03:05:48;19.38;;;4.90;;
23728;SDS011;12045;60.214;24.724;2023-04-24T03:08:19;13.68;;;5.00;;
23728;SDS011;12045;60.214;24.724;2023-04-24T03:10:52;12.15;;;4.95;;
23728;SDS011;12045;60.214;24.724;2023-04-24T03:13:23;9.77;;;5.20;;
23728;SDS011;12045;60.214;24.724;2023-04-24T03:15:56;9.25;;;5.30;;
23728;SDS011;12045;60.214;24.724;2023-04-24T03:18:32;8.70;;;4.97;;
23728;SDS011;12045;60.214;24.724;2023-04-24T03:21:05;8.02;;;5.60;;
23728;SDS011;12045;60.214;24.724;2023-04-24T03:23:38;10.27;;;6.20;;
23728;SDS011;12045;60.214;24.724;2023-04-24T03:26:12;9.98;;;7.10;;
23728;SDS011;12045;60.214;24.724;2023-04-24T03:28:43;13.52;;;7.28;;
23728;SDS011;12045;60.214;24.724;2023-04-24T03:31:17;11.40;;;7.88;;
23728;SDS011;12045;60.214;24.724;2023-04-24T03:33:53;15.65;;;8.68;;
23728;SDS011;12045;60.214;24.724;2023-04-24T03:36:21;15.73;;;8.35;;
23728;SDS011;12045;60.214;24.724;2023-04-24T03:38:48;12.68;;;9.60;;
23728;SDS011;12045;60.214;24.724;2023-04-24T03:41:16;13.75;;;9.02;;
23728;SDS011;12045;60.214;24.724;2023-04-24T03:43:43;12.10;;;9.65;;
23728;SDS011;12045;60.214;24.724;2023-04-24T03:46:11;17.48;;;10.93;;
23728;SDS011;12045;60.214;24.724;2023-04-24T03:48:38;16.00;;;10.82;;
23728;SDS011;12045;60.214;24.724;2023-04-24T03:51:06;16.50;;;10.95;;
23728;SDS011;12045;60.214;24.724;2023-04-24T03:53:33;17.52;;;11.57;;
23728;SDS011;12045;60.214;24.724;2023-04-24T03:56:00;16.92;;;11.60;;
23728;SDS011;12045;60.214;24.724;2023-04-24T03:58:28;15.63;;;11.57;;
23728;SDS011;12045;60.214;24.724;2023-04-24T04:00:55;15.55;;;11.18;;
23728;SDS011;12045;60.214;24.724;2023-04-24T04:03:24;15.77;;;10.40;;
23728;SDS011;12045;60.214;24.724;2023-04-24T04:05:53;13.85;;;10.50;;
23728;SDS011;12045;60.214;24.724;2023-04-24T04:08:21;15.48;;;9.15;;
23728;SDS011;12045;60.214;24.724;2023-04-24T04:10:48;18.73;;;11.55;;
23728;SDS011;12045;60.214;24.724;2023-04-24T04:13:16;16.55;;;11.30;;
23728;SDS011;12045;60.214;24.724;2023-04-24T04:15:43;17.48;;;11.77;;
23728;SDS011;12045;60.214;24.724;2023-04-24T04:18:11;16.15;;;9.57;;
23728;SDS011;12045;60.214;24.724;2023-04-24T04:20:38;22.27;;;13.63;;
23728;SDS011;12045;60.214;24.724;2023-04-24T04:23:06;18.25;;;11.40;;
23728;SDS011;12045;60.214;24.724;2023-04-24T04:25:33;22.83;;;13.40;;
23728;SDS011;12045;60.214;24.724;2023-04-24T04:28:01;19.15;;;13.70;;
23728;SDS011;12045;60.214;24.724;2023-04-24T04:30:29;19.75;;;13.00;;
23728;SDS011;12045;60.214;24.724;2023-04-24T04:32:59;21.00;;;13.73;;
23728;SDS011;12045;60.214;24.724;2023-04-24T04:35:27;22.92;;;14.50;;
23728;SDS011;12045;60.214;24.724;2023-04-24T04:37:54;18.88;;;13.38;;
23728;SDS011;12045;60.214;24.724;2023-04-24T04:40:25;19.45;;;14.38;;
23728;SDS011;12045;60.214;24.724;2023-04-24T04:42:53;20.38;;;13.98;;
23728;SDS011;12045;60.214;24.724;2023-04-24T04:45:21;23.20;;;14.70;;
23728;SDS011;12045;60.214;24.724;2023-04-24T04:47:48;23.00;;;14.50;;
23728;SDS011;12045;60.214;24.724;2023-04-24T04:50:16;21.77;;;14.82;;
23728;SDS011;12045;60.214;24.724;2023-04-24T04:52:47;23.38;;;15.32;;
23728;SDS011;12045;60.214;24.724;2023-04-24T04:55:14;26.83;;;15.73;;
23728;SDS011;12045;60.214;24.724;2023-04-24T04:57:42;24.70;;;16.02;;
23728;SDS011;12045;60.214;24.724;2023-04-24T05:00:10;24.33;;;16.63;;
23728;SDS011;12045;60.214;24.724;2023-04-24T05:02:38;25.88;;;16.00;;
23728;SDS011;12045;60.214;24.724;2023-04-24T05:05:06;28.25;;;17.95;;
23728;SDS011;12045;60.214;24.724;2023-04-24T05:07:34;29.10;;;17.98;;
23728;SDS011;12045;60.214;24.724;2023-04-24T05:10:03;31.35;;;19.13;;
23728;SDS011;12045;60.214;24.724;2023-04-24T05:12:31;30.48;;;19.38;;
23728;SDS011;12045;60.214;24.724;2023-04-24T05:14:59;29.85;;;19.35;;
23728;SDS011;12045;60.214;24.724;2023-04-24T05:17:26;35.42;;;20.23;;
23728;SDS011;12045;60.214;24.724;2023-04-24T05:19:56;31.92;;;19.05;;
23728;SDS011;12045;60.214;24.724;2023-04-24T05:22:24;31.45;;;19.17;;
23728;SDS011;12045;60.214;24.724;2023-04-24T05:24:54;28.83;;;18.90;;
23728;SDS011;12045;60.214;24.724;2023-04-24T05:27:24;29.15;;;19.45;;
23728;SDS011;12045;60.214;24.724;2023-04-24T05:29:51;29.70;;;18.90;;
23728;SDS011;12045;60.214;24.724;2023-04-24T05:32:19;28.10;;;18.65;;
23728;SDS011;12045;60.214;24.724;2023-04-24T05:34:47;29.42;;;17.52;;
23728;SDS011;12045;60.214;24.724;2023-04-24T05:37:15;29.20;;;18.58;;
23728;SDS011;12045;60.214;24.724;2023-04-24T05:39:42;31.35;;;19.55;;
23728;SDS011;12045;60.214;24.724;2023-04-24T05:42:10;27.27;;;18.42;;
23728;SDS011;12045;60.214;24.724;2023-04-24T05:44:37;28.30;;;19.23;;
23728;SDS011;12045;60.214;24.724;2023-04-24T05:47:05;27.58;;;18.83;;
23728;SDS011;12045;60.214;24.724;2023-04-24T05:49:33;24.70;;;16.17;;
23728;SDS011;12045;60.214;24.724;2023-04-24T05:52:00;31.10;;;19.67;;
23728;SDS011;12045;60.214;24.724;2023-04-24T05:54:27;31.60;;;19.80;;
23728;SDS011;12045;60.214;24.724;2023-04-24T05:56:55;28.40;;;18.92;;
23728;SDS011;12045;60.214;24.724;2023-04-24T05:59:22;27.13;;;18.98;;
23728;SDS011;12045;60.214;24.724;2023-04-24T06:01:50;28.50;;;19.23;;
23728;SDS011;12045;60.214;24.724;2023-04-24T06:04:17;27.15;;;18.67;;
23728;SDS011;12045;60.214;24.724;2023-04-24T06:06:45;35.72;;;20.77;;
23728;SDS011;12045;60.214;24.724;2023-04-24T06:09:13;30.88;;;20.15;;
23728;SDS011;12045;60.214;24.724;2023-04-24T06:11:40;26.63;;;17.90;;
23728;SDS011;12045;60.214;24.724;2023-04-24T06:14:08;28.15;;;18.63;;
23728;SDS011;12045;60.214;24.724;2023-04-24T06:16:35;34.42;;;20.13;;
23728;SDS011;12045;60.214;24.724;2023-04-24T06:19:03;30.08;;;19.02;;
23728;SDS011;12045;60.214;24.724;2023-04-24T06:21:31;35.10;;;20.55;;
23728;SDS011;12045;60.214;24.724;2023-04-24T06:23:58;31.80;;;19.27;;
23728;SDS011;12045;60.214;24.724;2023-04-24T06:26:27;29.67;;;17.23;;
23728;SDS011;12045;60.214;24.724;2023-04-24T06:28:55;25.75;;;15.90;;
23728;SDS011;12045;60.214;24.724;2023-04-24T06:31:22;34.53;;;19.77;;
23728;SDS011;12045;60.214;24.724;2023-04-24T06:33:50;34.00;;;18.50;;
23728;SDS011;12045;60.214;24.724;2023-04-24T06:36:17;31.42;;;18.77;;
23728;SDS011;12045;60.214;24.724;2023-04-24T06:38:45;31.90;;;19.58;;
23728;SDS011;12045;60.214;24.724;2023-04-24T06:41:13;35.28;;;19.90;;
23728;SDS011;12045;60.214;24.724;2023-04-24T06:43:41;33.58;;;19.92;;
23728;SDS011;12045;60.214;24.724;2023-04-24T06:46:09;28.48;;;19.27;;
23728;SDS011;12045;60.214;24.724;2023-04-24T06:48:37;30.63;;;19.58;;
23728;SDS011;12045;60.214;24.724;2023-04-24T06:51:12;19.15;;;11.48;;
23728;SDS011;12045;60.214;24.724;2023-04-24T06:53:40;29.30;;;19.30;;
23728;SDS011;12045;60.214;24.724;2023-04-24T06:56:08;28.73;;;19.67;;
23728;SDS011;12045;60.214;24.724;2023-04-24T06:58:37;34.63;;;19.80;;
23728;SDS011;12045;60.214;24.724;2023-04-24T07:01:05;27.95;;;18.23;;
23728;SDS011;12045;60.214;24.724;2023-04-24T07:03:36;28.85;;;17.63;;
23728;SDS011;12045;60.214;24.724;2023-04-24T07:06:04;26.27;;;17.02;;
23728;SDS011;12045;60.214;24.724;2023-04-24T07:08:32;26.58;;;17.45;;
23728;SDS011;12045;60.214;24.724;2023-04-24T07:11:01;25.70;;;17.65;;
23728;SDS011;12045;60.214;24.724;2023-04-24T07:13:28;28.55;;;17.63;;
23728;SDS011;12045;60.214;24.724;2023-04-24T07:15:56;25.35;;;16.48;;
23728;SDS011;12045;60.214;24.724;2023-04-24T07:18:24;25.38;;;16.73;;
23728;SDS011;12045;60.214;24.724;2023-04-24T07:20:55;23.02;;;14.75;;
23728;SDS011;12045;60.214;24.724;2023-04-24T07:23:23;23.00;;;14.93;;
23728;SDS011;12045;60.214;24.724;2023-04-24T07:25:50;28.85;;;16.88;;
23728;SDS011;12045;60.214;24.724;2023-04-24T07:28:18;22.50;;;15.40;;
23728;SDS011;12045;60.214;24.724;2023-04-24T07:30:46;22.52;;;15.48;;
23728;SDS011;12045;60.214;24.724;2023-04-24T07:33:13;22.70;;;15.27;;
23728;SDS011;12045;60.214;24.724;2023-04-24T07:35:41;21.75;;;13.82;;
23728;SDS011;12045;60.214;24.724;2023-04-24T07:38:10;23.13;;;13.60;;
23728;SDS011;12045;60.214;24.724;2023-04-24T07:40:39;20.48;;;13.25;;
23728;SDS011;12045;60.214;24.724;2023-04-24T07:43:08;17.08;;;11.43;;
23728;SDS011;12045;60.214;24.724;2023-04-24T07:45:38;17.08;;;11.75;;
23728;SDS011;12045;60.214;24.724;2023-04-24T07:48:09;9.43;;;7.00;;
23728;SDS011;12045;60.214;24.724;2023-04-24T07:50:37;16.10;;;11.38;;
23728;SDS011;12045;60.214;24.724;2023-04-24T07:53:08;17.13;;;10.60;;
23728;SDS011;12045;60.214;24.724;2023-04-24T07:55:35;16.15;;;10.52;;
23728;SDS011;12045;60.214;24.724;2023-04-24T07:58:06;12.13;;;8.73;;
23728;SDS011;12045;60.214;24.724;2023-04-24T08:00:35;12.68;;;9.15;;
23728;SDS011;12045;60.214;24.724;2023-04-24T08:03:03;10.85;;;8.23;;
23728;SDS011;12045;60.214;24.724;2023-04-24T08:05:34;8.38;;;5.88;;
23728;SDS011;12045;60.214;24.724;2023-04-24T08:08:06;12.23;;;8.20;;
23728;SDS011;12045;60.214;24.724;2023-04-24T08:10:35;13.65;;;7.80;;
23728;SDS011;12045;60.214;24.724;2023-04-24T08:13:03;10.38;;;7.22;;
23728;SDS011;12045;60.214;24.724;2023-04-24T08:15:31;7.50;;;2.90;;
23728;SDS011;12045;60.214;24.724;2023-04-24T08:17:57;11.02;;;7.30;;
23728;SDS011;12045;60.214;24.724;2023-04-24T08:20:30;13.13;;;7.57;;
23728;SDS011;12045;60.214;24.724;2023-04-24T08:22:59;7.57;;;5.05;;
23728;SDS011;12045;60.214;24.724;2023-04-24T08:25:30;9.55;;;5.65;;
23728;SDS011;12045;60.214;24.724;2023-04-24T08:27:58;10.35;;;6.85;;
23728;SDS011;12045;60.214;24.724;2023-04-24T08:30:27;10.85;;;6.88;;
23728;SDS011;12045;60.214;24.724;2023-04-24T08:32:57;10.55;;;6.72;;
23728;SDS011;12045;60.214;24.724;2023-04-24T08:35:24;11.05;;;5.57;;
23728;SDS011;12045;60.214;24.724;2023-04-24T08:37:53;2.55;;;1.95;;
23728;SDS011;12045;60.214;24.724;2023-04-24T08:40:22;7.72;;;6.10;;
23728;SDS011;12045;60.214;24.724;2023-04-24T08:42:57;5.32;;;3.97;;
23728;SDS011;12045;60.214;24.724;2023-04-24T08:45:27;6.18;;;4.20;;
23728;SDS011;12045;60.214;24.724;2023-04-24T08:47:54;4.90;;;3.38;;
23728;SDS011;12045;60.214;24.724;2023-04-24T08:50:25;5.30;;;4.25;;
23728;SDS011;12045;60.214;24.724;2023-04-24T08:52:54;8.40;;;5.13;;
23728;SDS011;12045;60.214;24.724;2023-04-24T08:55:22;4.10;;;3.25;;
23728;SDS011;12045;60.214;24.724;2023-04-24T08:57:52;8.60;;;5.40;;
23728;SDS011;12045;60.214;24.724;2023-04-24T09:00:21;8.73;;;5.10;;
23728;SDS011;12045;60.214;24.724;2023-04-24T09:02:49;6.65;;;5.57;;
23728;SDS011;12045;60.214;24.724;2023-04-24T09:05:17;7.70;;;5.25;;
23728;SDS011;12045;60.214;24.724;2023-04-24T09:07:53;5.88;;;4.38;;
23728;SDS011;12045;60.214;24.724;2023-04-24T09:10:25;7.20;;;4.97;;
23728;SDS011;12045;60.214;24.724;2023-04-24T09:12:53;6.55;;;4.82;;
23728;SDS011;12045;60.214;24.724;2023-04-24T09:15:21;7.03;;;4.55;;
23728;SDS011;12045;60.214;24.724;2023-04-24T09:17:50;6.80;;;4.90;;
23728;SDS011;12045;60.214;24.724;2023-04-24T09:20:23;11.60;;;2.90;;
23728;SDS011;12045;60.214;24.724;2023-04-24T09:22:53;8.00;;;4.28;;
23728;SDS011;12045;60.214;24.724;2023-04-24T09:25:32;6.80;;;5.30;;
23728;SDS011;12045;60.214;24.724;2023-04-24T09:28:05;4.10;;;3.33;;
23728;SDS011;12045;60.214;24.724;2023-04-24T09:30:33;6.20;;;4.90;;
23728;SDS011;12045;60.214;24.724;2023-04-24T09:33:14;8.40;;;4.40;;
23728;SDS011;12045;60.214;24.724;2023-04-24T09:35:51;5.47;;;4.18;;
23728;SDS011;12045;60.214;24.724;2023-04-24T09:38:19;3.78;;;2.42;;
23728;SDS011;12045;60.214;24.724;2023-04-24T09:41:00;6.35;;;4.30;;
23728;SDS011;12045;60.214;24.724;2023-04-24T09:43:35;5.30;;;4.20;;
23728;SDS011;12045;60.214;24.724;2023-04-24T09:46:07;5.20;;;3.33;;
23728;SDS011;12045;60.214;24.724;2023-04-24T09:48:37;2.83;;;2.42;;
23728;SDS011;12045;60.214;24.724;2023-04-24T09:51:05;2.97;;;1.67;;
23728;SDS011;12045;60.214;24.724;2023-04-24T09:53:44;1.88;;;1.35;;
23728;SDS011;12045;60.214;24.724;2023-04-24T09:56:13;2.67;;;1.85;;
23728;SDS011;12045;60.214;24.724;2023-04-24T09:58:42;3.88;;;2.22;;
23728;SDS011;12045;60.214;24.724;2023-04-24T10:01:09;3.70;;;2.70;;
23728;SDS011;12045;60.214;24.724;2023-04-24T10:03:38;1.90;;;1.42;;
23728;SDS011;12045;60.214;24.724;2023-04-24T10:06:11;3.13;;;1.77;;
23728;SDS011;12045;60.214;24.724;2023-04-24T10:08:39;3.58;;;2.65;;
23728;SDS011;12045;60.214;24.724;2023-04-24T10:11:07;3.25;;;2.78;;
23728;SDS011;12045;60.214;24.724;2023-04-24T10:13:36;2.88;;;1.73;;
23728;SDS011;12045;60.214;24.724;2023-04-24T10:16:05;1.55;;;1.45;;
23728;SDS011;12045;60.214;24.724;2023-04-24T10:18:35;4.88;;;2.80;;
23728;SDS011;12045;60.214;24.724;2023-04-24T10:21:04;3.08;;;1.98;;
23728;SDS011;12045;60.214;24.724;2023-04-24T10:23:33;3.90;;;2.78;;
23728;SDS011;12045;60.214;24.724;2023-04-24T10:26:02;3.53;;;2.60;;
23728;SDS011;12045;60.214;24.724;2023-04-24T10:28:31;3.38;;;2.58;;
23728;SDS011;12045;60.214;24.724;2023-04-24T10:31:01;2.63;;;2.25;;
23728;SDS011;12045;60.214;24.724;2023-04-24T10:33:29;3.58;;;2.60;;
23728;SDS011;12045;60.214;24.724;2023-04-24T10:35:58;3.97;;;2.78;;
23728;SDS011;12045;60.214;24.724;2023-04-24T10:38:27;3.33;;;3.03;;
23728;SDS011;12045;60.214;24.724;2023-04-24T10:41:16;4.72;;;2.72;;
23728;SDS011;12045;60.214;24.724;2023-04-24T10:46:38;4.03;;;3.22;;
23728;SDS011;12045;60.214;24.724;2023-04-24T10:49:12;2.10;;;1.52;;
23728;SDS011;12045;60.214;24.724;2023-04-24T10:51:52;6.28;;;3.70;;
23728;SDS011;12045;60.214;24.724;2023-04-24T10:54:26;5.65;;;3.97;;
23728;SDS011;12045;60.214;24.724;2023-04-24T11:00:09;6.15;;;3.67;;
23728;SDS011;12045;60.214;24.724;2023-04-24T11:02:42;5.22;;;3.53;;
23728;SDS011;12045;60.214;24.724;2023-04-24T11:06:00;3.05;;;2.20;;
23728;SDS011;12045;60.214;24.724;2023-04-24T11:08:39;4.22;;;3.83;;
23728;SDS011;12045;60.214;24.724;2023-04-24T11:11:12;6.18;;;4.18;;
23728;SDS011;12045;60.214;24.724;2023-04-24T11:16:21;4.10;;;3.22;;
23728;SDS011;12045;60.214;24.724;2023-04-24T11:19:06;6.07;;;4.20;;
23728;SDS011;12045;60.214;24.724;2023-04-24T11:21:48;5.07;;;3.40;;
23728;SDS011;12045;60.214;24.724;2023-04-24T11:24:31;5.88;;;3.50;;
23728;SDS011;12045;60.214;24.724;2023-04-24T11:34:57;5.18;;;3.72;;
23728;SDS011;12045;60.214;24.724;2023-04-24T11:37:35;5.07;;;3.40;;
23728;SDS011;12045;60.214;24.724;2023-04-24T11:40:05;6.88;;;3.72;;
23728;SDS011;12045;60.214;24.724;2023-04-24T11:42:43;5.85;;;3.47;;
23728;SDS011;12045;60.214;24.724;2023-04-24T11:45:16;5.13;;;3.05;;
23728;SDS011;12045;60.214;24.724;2023-04-24T11:47:54;4.38;;;3.40;;
23728;SDS011;12045;60.214;24.724;2023-04-24T11:50:23;4.57;;;3.00;;
23728;SDS011;12045;60.214;24.724;2023-04-24T11:52:52;4.65;;;2.90;;
23728;SDS011;12045;60.214;24.724;2023-04-24T11:57:48;3.08;;;2.70;;
23728;SDS011;12045;60.214;24.724;2023-04-24T12:00:18;4.25;;;3.45;;
23728;SDS011;12045;60.214;24.724;2023-04-24T12:02:47;4.32;;;2.80;;
23728;SDS011;12045;60.214;24.724;2023-04-24T12:05:20;4.55;;;3.10;;
23728;SDS011;12045;60.214;24.724;2023-04-24T12:07:49;4.05;;;2.70;;
23728;SDS011;12045;60.214;24.724;2023-04-24T12:10:24;3.42;;;2.78;;
23728;SDS011;12045;60.214;24.724;2023-04-24T12:12:53;4.53;;;2.90;;
23728;SDS011;12045;60.214;24.724;2023-04-24T12:15:23;4.57;;;2.80;;
23728;SDS011;12045;60.214;24.724;2023-04-24T12:17:51;4.97;;;3.00;;
23728;SDS011;12045;60.214;24.724;2023-04-24T12:20:24;3.90;;;3.25;;
23728;SDS011;12045;60.214;24.724;2023-04-24T12:22:54;4.30;;;3.10;;
23728;SDS011;12045;60.214;24.724;2023-04-24T12:25:24;4.45;;;3.10;;
23728;SDS011;12045;60.214;24.724;2023-04-24T12:30:34;4.47;;;3.42;;
23728;SDS011;12045;60.214;24.724;2023-04-24T12:33:05;6.72;;;3.22;;
23728;SDS011;12045;60.214;24.724;2023-04-24T12:35:33;4.47;;;3.15;;
23728;SDS011;12045;60.214;24.724;2023-04-24T12:38:09;5.10;;;3.22;;
23728;SDS011;12045;60.214;24.724;2023-04-24T12:40:40;4.07;;;3.20;;
23728;SDS011;12045;60.214;24.724;2023-04-24T12:43:15;4.20;;;3.08;;
23728;SDS011;12045;60.214;24.724;2023-04-24T12:45:44;3.85;;;3.00;;
23728;SDS011;12045;60.214;24.724;2023-04-24T12:48:12;4.10;;;3.35;;
23728;SDS011;12045;60.214;24.724;2023-04-24T12:50:41;4.50;;;3.28;;
23728;SDS011;12045;60.214;24.724;2023-04-24T12:53:12;6.22;;;3.42;;
23728;SDS011;12045;60.214;24.724;2023-04-24T12:55:40;3.40;;;3.08;;
23728;SDS011;12045;60.214;24.724;2023-04-24T12:58:07;6.90;;;2.85;;
23728;SDS011;12045;60.214;24.724;2023-04-24T13:00:35;7.88;;;3.10;;
23728;SDS011;12045;60.214;24.724;2023-04-24T13:03:03;3.30;;;2.95;;
23728;SDS011;12045;60.214;24.724;2023-04-24T13:05:32;5.72;;;2.83;;
23728;SDS011;12045;60.214;24.724;2023-04-24T13:07:59;5.82;;;3.00;;
23728;SDS011;12045;60.214;24.724;2023-04-24T13:10:27;3.65;;;3.05;;
23728;SDS011;12045;60.214;24.724;2023-04-24T13:12:54;8.85;;;3.08;;
23728;SDS011;12045;60.214;24.724;2023-04-24T13:15:22;3.70;;;2.45;;
23728;SDS011;12045;60.214;24.724;2023-04-24T13:17:50;3.78;;;2.78;;
23728;SDS011;12045;60.214;24.724;2023-04-24T13:20:17;3.28;;;2.97;;
23728;SDS011;12045;60.214;24.724;2023-04-24T13:22:45;4.00;;;2.60;;
23728;SDS011;12045;60.214;24.724;2023-04-24T13:25:15;3.88;;;2.28;;
23728;SDS011;12045;60.214;24.724;2023-04-24T13:27:44;2.83;;;2.53;;
23728;SDS011;12045;60.214;24.724;2023-04-24T13:30:11;4.75;;;2.80;;
23728;SDS011;12045;60.214;24.724;2023-04-24T13:32:39;2.80;;;2.50;;
23728;SDS011;12045;60.214;24.724;2023-04-24T13:35:07;4.30;;;2.42;;
23728;SDS011;12045;60.214;24.724;2023-04-24T13:37:35;3.70;;;2.30;;
23728;SDS011;12045;60.214;24.724;2023-04-24T13:40:02;2.30;;;2.08;;
23728;SDS011;12045;60.214;24.724;2023-04-24T13:42:33;2.40;;;2.00;;
23728;SDS011;12045;60.214;24.724;2023-04-24T13:45:01;3.55;;;2.10;;
23728;SDS011;12045;60.214;24.724;2023-04-24T13:47:48;2.88;;;2.17;;
23728;SDS011;12045;60.214;24.724;2023-04-24T13:50:18;3.13;;;2.03;;
23728;SDS011;12045;60.214;24.724;2023-04-24T13:52:46;2.35;;;1.83;;
23728;SDS011;12045;60.214;24.724;2023-04-24T13:55:13;2.28;;;1.80;;
23728;SDS011;12045;60.214;24.724;2023-04-24T13:57:41;2.65;;;1.92;;
23728;SDS011;12045;60.214;24.724;2023-04-24T14:00:08;2.03;;;1.70;;
23728;SDS011;12045;60.214;24.724;2023-04-24T14:02:37;4.13;;;1.75;;
23728;SDS011;12045;60.214;24.724;2023-04-24T14:05:05;1.92;;;1.60;;
23728;SDS011;12045;60.214;24.724;2023-04-24T14:07:33;3.15;;;1.70;;
23728;SDS011;12045;60.214;24.724;2023-04-24T14:10:01;2.05;;;1.80;;
23728;SDS011;12045;60.214;24.724;2023-04-24T14:12:28;3.40;;;1.80;;
23728;SDS011;12045;60.214;24.724;2023-04-24T14:14:56;2.58;;;1.40;;
23728;SDS011;12045;60.214;24.724;2023-04-24T14:17:24;3.08;;;1.60;;
23728;SDS011;12045;60.214;24.724;2023-04-24T14:19:51;2.47;;;1.70;;
23728;SDS011;12045;60.214;24.724;2023-04-24T14:22:19;2.95;;;1.90;;
23728;SDS011;12045;60.214;24.724;2023-04-24T14:24:47;1.60;;;1.50;;
23728;SDS011;12045;60.214;24.724;2023-04-24T14:27:14;2.58;;;1.60;;
23728;SDS011;12045;60.214;24.724;2023-04-24T14:29:41;6.47;;;1.45;;
23728;SDS011;12045;60.214;24.724;2023-04-24T14:32:09;1.65;;;1.33;;
23728;SDS011;12045;60.214;24.724;2023-04-24T14:34:36;2.65;;;1.52;;
23728;SDS011;12045;60.214;24.724;2023-04-24T14:37:04;2.80;;;1.45;;
23728;SDS011;12045;60.214;24.724;2023-04-24T14:39:31;3.25;;;1.48;;
23728;SDS011;12045;60.214;24.724;2023-04-24T14:42:00;3.28;;;1.50;;
23728;SDS011;12045;60.214;24.724;2023-04-24T14:44:28;1.60;;;1.50;;
23728;SDS011;12045;60.214;24.724;2023-04-24T14:46:55;2.03;;;1.50;;
23728;SDS011;12045;60.214;24.724;2023-04-24T14:49:23;2.00;;;1.58;;
23728;SDS011;12045;60.214;24.724;2023-04-24T14:51:51;2.75;;;1.55;;
23728;SDS011;12045;60.214;24.724;2023-04-24T14:54:18;1.67;;;1.40;;
23728;SDS011;12045;60.214;24.724;2023-04-24T14:56:46;3.83;;;1.40;;
23728;SDS011;12045;60.214;24.724;2023-04-24T14:59:14;4.60;;;1.25;;